Time;durP1;ratioP1;P1;durP2;ratioP2;P2;SDS_P1;SDS_P2;PMS_P1;PMS_P2;Temp;Humidity;BMP_temperature;BMP_pressure;BME280_temperature;BME280_humidity;BME280_pressure;Samples;Min_cycle;Max_cycle;Signal;HPM_P1;HPM_P2
2022/06/02 00:02:48;;;;;;;6.28;2.30;;;;;;;15.28;68.24;99905.41;4438528;32;34163;-58
2022/06/02 00:05:52;;;;;;;5.62;2.30;;;;;;;15.26;67.70;99901.84;4451478;32;33815;-59
2022/06/02 00:08:42;;;;;;;5.47;2.70;;;;;;;15.82;65.84;99904.22;4434347;32;33637;-59
2022/06/02 00:11:34;;;;;;;4.43;2.30;;;;;;;14.86;69.34;99906.84;4439929;32;33625;-58
2022/06/02 00:14:12;;;;;;;4.75;2.50;;;;;;;14.55;70.63;99910.25;4451915;32;34818;-58
2022/06/02 00:17:02;;;;;;;4.90;2.50;;;;;;;14.42;71.14;99902.87;4439256;32;33791;-59
2022/06/02 00:19:41;;;;;;;3.85;2.20;;;;;;;14.38;71.54;99893.19;4439252;32;33612;-58
2022/06/02 00:22:19;;;;;;;5.62;2.72;;;;;;;14.53;70.65;99896.28;4453594;32;34622;-58
2022/06/02 00:24:56;;;;;;;4.93;2.00;;;;;;;14.88;69.27;99896.47;4439148;32;33848;-58
2022/06/02 00:27:35;;;;;;;3.78;2.08;;;;;;;15.05;68.28;99892.59;4442942;32;34617;-58
2022/06/02 00:30:13;;;;;;;4.20;2.47;;;;;;;14.85;68.96;99894.63;4453787;32;33162;-59
2022/06/02 00:33:08;;;;;;;6.85;2.62;;;;;;;14.43;70.91;99899.41;4438497;32;33721;-59
2022/06/02 00:35:42;;;;;;;5.72;2.28;;;;;;;14.46;70.62;99894.31;4451592;32;33807;-59
2022/06/02 00:38:18;;;;;;;3.30;2.00;;;;;;;14.54;70.25;99885.00;4452179;32;34563;-58
2022/06/02 00:40:46;;;;;;;4.47;2.22;;;;;;;14.84;69.13;99881.56;4436406;32;33298;-59
2022/06/02 00:43:29;;;;;;;15.70;2.50;;;;;;;14.65;69.45;99886.25;4452251;32;33710;-58
2022/06/02 00:46:06;;;;;;;4.82;2.50;;;;;;;14.71;69.67;99883.81;4453584;32;33802;-58
2022/06/02 00:49:11;;;;;;;5.12;2.40;;;;;;;14.54;70.30;99888.50;4437518;32;33767;-57
2022/06/02 00:51:51;;;;;;;4.70;2.55;;;;;;;14.85;69.44;99883.31;4450802;32;33195;-58
2022/06/02 00:57:48;;;;;;;4.20;2.25;;;;;;;15.44;66.77;99880.59;4449684;32;33632;-58
2022/06/02 01:00:23;;;;;;;5.80;2.45;;;;;;;15.60;65.87;99874.06;4436475;32;32304;-59
2022/06/02 01:03:10;;;;;;;5.15;2.40;;;;;;;15.77;64.48;99870.16;4434643;32;33116;-59
2022/06/02 01:06:07;;;;;;;6.60;2.30;;;;;;;15.80;64.71;99880.72;4447651;32;33791;-60
2022/06/02 01:08:58;;;;;;;5.03;2.12;;;;;;;16.35;63.30;99870.66;4434841;32;34377;-59
2022/06/02 01:11:38;;;;;;;4.30;1.80;;;;;;;16.56;62.00;99867.66;4435988;32;34436;-58
2022/06/02 01:14:22;;;;;;;3.97;2.12;;;;;;;16.08;63.66;99874.41;4434081;32;33460;-59
2022/06/02 01:17:02;;;;;;;3.42;2.10;;;;;;;16.82;61.80;99872.56;4448006;32;33902;-59
2022/06/02 01:20:00;;;;;;;4.75;2.08;;;;;;;17.35;60.16;99872.75;4448706;32;33730;-59
2022/06/02 01:22:49;;;;;;;2.58;1.83;;;;;;;16.26;62.38;99876.59;4449938;32;32388;-58
2022/06/02 01:25:25;;;;;;;5.43;2.03;;;;;;;16.05;63.04;99865.59;4450672;32;32227;-58
2022/06/02 01:28:25;;;;;;;3.40;2.20;;;;;;;16.09;63.63;99857.88;4450129;32;33497;-58
2022/06/02 01:31:30;;;;;;;3.70;1.80;;;;;;;16.27;62.94;99862.66;4396404;32;35271;-59
2022/06/02 01:34:17;;;;;;;;;;;;;;;16.03;63.36;99843.78;4450766;32;33791;-59
2022/06/02 01:36:56;;;;;;;3.97;1.90;;;;;;;16.63;62.11;99840.78;4450816;32;33353;-58
2022/06/02 01:39:32;;;;;;;5.45;1.92;;;;;;;17.15;60.05;99834.84;4436943;32;33977;-59
2022/06/02 01:42:18;;;;;;;3.87;2.20;;;;;;;17.81;58.60;99844.72;4451191;32;33910;-59
2022/06/02 01:45:19;;;;;;;4.78;2.12;;;;;;;17.68;59.23;99854.13;4451468;32;33940;-58
2022/06/02 01:47:54;;;;;;;3.67;1.95;;;;;;;18.04;57.98;99850.38;4447166;32;33899;-59
2022/06/02 01:50:41;;;;;;;5.95;1.90;;;;;;;18.17;57.64;99855.78;4450386;32;33653;-59
2022/06/02 01:53:31;;;;;;;4.93;2.00;;;;;;;18.37;57.01;99851.72;4450268;32;34469;-59
2022/06/02 01:55:59;;;;;;;3.20;1.87;;;;;;;18.49;56.79;99844.88;4449516;32;34631;-59
2022/06/02 01:58:45;;;;;;;3.67;1.85;;;;;;;17.24;60.64;99846.34;4449482;32;34197;-58
2022/06/02 02:01:22;;;;;;;4.00;2.22;;;;;;;17.92;59.02;99836.19;4476077;26;33639;-83
2022/06/02 02:04:04;;;;;;;4.15;2.20;;;;;;;17.96;58.84;99838.00;4436095;32;35890;-84
2022/06/02 02:06:43;;;;;;;3.22;1.87;;;;;;;18.00;58.92;99840.69;4450860;32;33855;-84
2022/06/02 02:09:20;;;;;;;5.95;2.40;;;;;;;17.02;61.91;99839.84;4451320;32;33607;-84
2022/06/02 02:11:53;;;;;;;4.40;2.10;;;;;;;16.74;63.21;99837.50;4452505;32;34294;-84
2022/06/02 02:14:43;;;;;;;4.47;2.30;;;;;;;16.73;63.31;99843.56;4438450;32;33823;-83
2022/06/02 02:17:10;;;;;;;4.97;2.45;;;;;;;16.53;64.04;99844.03;4463481;32;33483;-84
2022/06/02 02:20:02;;;;;;;3.10;1.95;;;;;;;15.99;66.34;99841.94;4451789;32;33144;-84
2022/06/02 02:22:48;;;;;;;5.65;2.28;;;;;;;15.81;66.70;99851.13;4464960;32;33916;-84
2022/06/02 02:25:37;;;;;;;4.82;2.17;;;;;;;15.69;67.61;99864.72;4466048;32;32423;-83
2022/06/02 02:28:26;;;;;;;3.58;2.00;;;;;;;15.67;67.85;99878.59;4448878;32;33519;-83
2022/06/02 02:31:18;;;;;;;3.67;2.03;;;;;;;15.97;66.69;99893.28;4451672;32;33195;-83
2022/06/02 02:34:01;;;;;;;5.45;2.37;;;;;;;15.89;67.66;99914.00;4439448;32;33769;-84
2022/06/02 02:36:33;;;;;;;5.37;2.70;;;;;;;16.45;66.03;99909.22;4451339;32;34146;-84
2022/06/02 02:39:13;;;;;;;5.82;2.12;;;;;;;17.23;63.58;99922.22;4451119;32;32462;-84
2022/06/02 02:41:47;;;;;;;6.55;2.62;;;;;;;16.65;66.32;99925.37;4461599;32;34419;-84
2022/06/02 02:44:19;;;;;;;7.72;2.72;;;;;;;16.31;68.61;99935.06;4444584;32;34545;-85
2022/06/02 02:46:56;;;;;;;5.43;3.00;;;;;;;16.64;68.25;99931.44;4460954;32;33550;-84
2022/06/02 02:49:36;;;;;;;5.78;3.45;;;;;;;15.60;71.85;99949.78;4444282;32;33981;-84
2022/06/02 02:52:14;;;;;;;6.80;3.55;;;;;;;15.66;73.10;99968.22;4408835;32;32716;-86
2022/06/02 02:54:48;;;;;;;4.97;3.20;;;;;;;15.30;75.00;100002.91;4439134;32;33661;-85
2022/06/02 02:57:31;;;;;;;6.20;3.80;;;;;;;16.01;72.89;100004.84;4433532;32;34387;-85
2022/06/02 03:00:14;;;;;;;8.05;4.22;;;;;;;16.42;70.93;99982.38;4441478;32;34489;-83
2022/06/02 03:03:09;;;;;;;8.07;5.43;;;;;;;15.72;75.49;99998.00;4462720;32;34385;-84
2022/06/02 03:05:37;;;;;;;;;;;;;;;15.52;77.24;100013.09;4452671;32;33882;-85
2022/06/02 03:08:12;;;;;;;11.48;4.80;;;;;;;15.69;77.70;100004.88;4460338;32;35080;-84
2022/06/02 03:10:40;;;;;;;;;;;;;;;15.41;80.53;100004.06;4448936;32;34652;-84
2022/06/02 03:13:19;;;;;;;8.05;5.12;;;;;;;15.30;81.40;100018.56;4446210;32;33500;-84
2022/06/02 03:16:08;;;;;;;11.02;4.78;;;;;;;16.23;77.80;100017.63;4434709;32;33673;-84
2022/06/02 03:18:50;;;;;;;8.23;4.82;;;;;;;16.65;76.17;100009.09;4445064;32;33397;-85
2022/06/02 03:21:32;;;;;;;10.23;5.37;;;;;;;16.42;76.81;100012.88;4419779;32;33165;-84
2022/06/02 03:24:20;;;;;;;10.07;5.05;;;;;;;15.66;81.50;100017.81;4440370;32;33763;-84
2022/06/02 03:27:30;;;;;;;10.07;5.60;;;;;;;16.86;76.20;100010.44;4452662;32;33713;-84
2022/06/02 03:30:10;;;;;;;10.80;5.78;;;;;;;17.20;73.32;100011.19;4460251;32;34388;-84
2022/06/02 03:32:50;;;;;;;8.85;5.32;;;;;;;15.77;82.45;100037.31;4451344;32;33613;-84
2022/06/02 03:35:23;;;;;;;8.80;5.12;;;;;;;16.45;79.15;100029.50;4467778;32;33886;-84
2022/06/02 03:37:51;;;;;;;9.85;5.65;;;;;;;16.62;77.07;100024.69;4452837;32;32986;-85
2022/06/02 03:40:31;;;;;;;9.35;5.60;;;;;;;16.94;76.66;100008.91;4449873;32;34107;-87
2022/06/02 03:43:28;;;;;;;13.85;6.30;;;;;;;17.71;72.97;99997.38;4466795;32;33611;-85
2022/06/02 03:46:16;;;;;;;10.65;5.85;;;;;;;16.78;78.01;100002.38;4438684;32;33107;-84
2022/06/02 03:49:21;;;;;;;8.10;5.78;;;;;;;17.26;76.64;99975.53;4453655;32;33415;-85
2022/06/02 03:52:06;;;;;;;10.68;5.62;;;;;;;17.32;75.60;99959.06;4465394;32;34765;-85
2022/06/02 03:55:00;;;;;;;9.05;5.68;;;;;;;16.73;79.02;99945.56;4453662;32;34132;-86
2022/06/02 03:57:54;;;;;;;9.98;6.22;;;;;;;16.60;80.13;99932.25;4438840;32;32483;-86
2022/06/02 04:00:26;;;;;;;9.32;5.87;;;;;;;16.78;81.75;99936.09;4448933;32;33187;-85
2022/06/02 04:03:03;;;;;;;14.68;6.57;;;;;;;16.13;83.52;99939.84;4432915;32;33482;-86
2022/06/02 04:05:44;;;;;;;12.43;6.70;;;;;;;15.91;85.31;99939.28;4454207;32;33577;-85
2022/06/02 04:08:24;;;;;;;14.85;7.78;;;;;;;15.48;90.62;99955.53;4451171;32;32164;-85
2022/06/02 04:11:03;;;;;;;13.23;7.65;;;;;;;15.48;91.55;99964.25;4456826;32;33324;-84
2022/06/02 04:13:50;;;;;;;16.58;8.23;;;;;;;15.48;90.50;99960.78;4438451;32;32059;-85
2022/06/02 04:16:33;;;;;;;11.73;8.15;;;;;;;15.17;93.25;99972.94;4466062;32;33675;-86
2022/06/02 04:22:14;;;;;;;14.65;8.65;;;;;;;15.23;93.72;99975.72;4466321;32;34571;-86
2022/06/02 04:24:53;;;;;;;16.33;9.02;;;;;;;15.17;95.86;99979.91;4465517;32;34687;-85
2022/06/02 04:27:30;;;;;;;13.30;8.30;;;;;;;15.25;95.80;99979.28;4468506;32;34428;-85
2022/06/02 04:30:53;;;;;;;15.10;7.82;;;;;;;16.50;87.87;99982.56;4441168;32;34088;-84
2022/06/02 04:33:34;;;;;;;10.35;6.97;;;;;;;16.50;86.53;99969.50;4429218;32;33789;-84
2022/06/02 04:36:08;;;;;;;12.80;7.55;;;;;;;16.75;84.67;99970.06;4451281;32;33421;-85
2022/06/02 04:39:05;;;;;;;9.32;6.28;;;;;;;17.20;82.92;99970.19;4466300;32;33544;-86
2022/06/02 04:41:37;;;;;;;10.85;6.90;;;;;;;18.05;79.02;99974.44;4453568;32;34048;-86
2022/06/02 04:44:22;;;;;;;9.73;6.60;;;;;;;17.43;80.66;99970.66;4443063;32;35109;-86
2022/06/02 04:47:10;;;;;;;9.63;6.80;;;;;;;16.71;85.88;99985.69;4452802;32;34039;-85
2022/06/02 04:49:47;;;;;;;12.90;6.80;;;;;;;16.84;85.52;99986.88;4439712;32;34026;-84
2022/06/02 04:52:33;;;;;;;8.82;6.18;;;;;;;16.71;85.45;99992.66;4448553;32;32145;-84
2022/06/02 04:55:33;;;;;;;10.65;5.60;;;;;;;16.69;85.02;99987.38;4449711;32;33920;-86
2022/06/02 04:58:09;;;;;;;7.12;5.28;;;;;;;17.80;79.62;99984.44;4443903;32;32955;-86
2022/06/02 05:00:46;;;;;;;13.80;5.90;;;;;;;18.28;76.90;99973.06;4447478;32;33749;-84
2022/06/02 05:03:17;;;;;;;7.32;5.15;;;;;;;18.54;75.45;99983.09;4449808;32;33449;-87
2022/06/02 05:05:58;;;;;;;8.45;4.93;;;;;;;18.46;75.43;99976.84;4448029;32;34173;-86
2022/06/02 05:08:41;;;;;;;10.57;5.65;;;;;;;18.92;73.78;99980.19;4455792;32;32524;-86
2022/06/02 05:11:31;;;;;;;11.30;5.93;;;;;;;18.80;74.45;99993.16;4465822;32;33949;-85
2022/06/02 05:14:28;;;;;;;12.13;6.47;;;;;;;17.72;81.25;99999.16;4465468;32;33440;-85
2022/06/02 05:17:41;;;;;;;9.20;5.85;;;;;;;18.22;78.46;99991.34;4442814;32;33471;-87
2022/06/02 05:20:35;;;;;;;13.20;5.95;;;;;;;18.34;76.21;99997.66;4450373;32;32400;-86
2022/06/02 05:23:28;;;;;;;9.63;5.90;;;;;;;18.09;78.69;100007.72;4458595;32;33894;-87
2022/06/02 05:26:25;;;;;;;10.05;6.15;;;;;;;19.08;74.39;100004.03;4444833;32;33146;-85
2022/06/02 05:29:03;;;;;;;9.27;6.50;;;;;;;18.48;77.16;100014.47;4456039;32;33755;-86
2022/06/02 05:31:49;;;;;;;9.18;5.78;;;;;;;17.72;81.44;100017.47;4451735;32;34441;-85
2022/06/02 05:34:49;;;;;;;9.30;6.10;;;;;;;19.00;74.87;100015.28;4461896;32;34484;-85
2022/06/02 05:37:49;;;;;;;9.38;5.25;;;;;;;19.47;72.19;100018.50;4460353;32;33359;-86
2022/06/02 05:40:20;;;;;;;8.38;4.82;;;;;;;19.76;69.86;100022.41;4446726;32;34582;-85
2022/06/02 05:43:15;;;;;;;8.27;5.30;;;;;;;19.71;70.91;100029.31;4463747;32;35162;-86
2022/06/02 05:45:55;;;;;;;8.55;4.93;;;;;;;19.72;71.13;100023.25;4428261;32;34375;-85
2022/06/02 05:48:58;;;;;;;10.10;5.60;;;;;;;19.90;69.31;100029.56;4447869;32;33362;-86
2022/06/02 05:51:31;;;;;;;12.43;6.32;;;;;;;18.32;76.76;100036.94;4459091;32;34462;-86
2022/06/02 05:54:06;;;;;;;10.27;6.12;;;;;;;17.43;82.64;100030.87;4452208;32;33899;-86
2022/06/02 05:56:49;;;;;;;12.87;6.70;;;;;;;19.02;76.04;100026.69;4448812;32;33762;-85
2022/06/02 05:59:18;;;;;;;10.15;6.70;;;;;;;19.39;74.74;100032.47;4449412;32;33479;-87
2022/06/02 06:02:25;;;;;;;11.85;7.57;;;;;;;17.97;80.29;100039.81;4451270;32;34626;-85
2022/06/02 06:04:59;;;;;;;9.40;6.53;;;;;;;18.78;76.17;100042.94;4443737;32;35911;-85
2022/06/02 06:07:41;;;;;;;11.70;6.87;;;;;;;17.80;81.24;100042.09;4445517;32;34531;-85
2022/06/02 06:10:40;;;;;;;12.05;6.72;;;;;;;17.76;81.61;100040.25;4445536;32;33857;-87
2022/06/02 06:13:50;;;;;;;10.73;7.30;;;;;;;18.76;77.02;100043.78;4448482;32;33708;-85
2022/06/02 06:16:24;;;;;;;9.18;6.30;;;;;;;18.50;78.81;100046.84;4420274;32;33724;-86
2022/06/02 06:19:11;;;;;;;11.25;6.68;;;;;;;18.56;77.38;100035.59;4451243;32;34307;-85
2022/06/02 06:21:41;;;;;;;10.18;5.93;;;;;;;18.76;75.91;100038.53;4445260;32;31745;-85
2022/06/02 06:24:28;;;;;;;8.45;5.72;;;;;;;19.93;71.68;100034.84;4447171;32;32437;-85
2022/06/02 06:27:10;;;;;;;11.05;7.90;;;;;;;19.65;73.77;100032.75;4449169;32;32954;-85
2022/06/02 06:30:00;;;;;;;8.75;6.32;;;;;;;19.93;73.04;100040.09;4443945;32;33571;-86
2022/06/02 06:32:54;;;;;;;7.78;5.43;;;;;;;20.31;70.83;100042.22;4449795;32;32973;-85
2022/06/02 06:35:40;;;;;;;9.88;6.15;;;;;;;20.66;67.99;100049.56;4438009;32;33594;-85
2022/06/02 06:38:17;;;;;;;11.30;6.85;;;;;;;20.00;71.79;100055.09;4449565;32;33629;-84
2022/06/02 06:41:10;;;;;;;9.38;6.60;;;;;;;20.85;70.01;100062.00;4450018;32;35089;-85
2022/06/02 06:43:49;;;;;;;9.02;6.72;;;;;;;21.20;68.35;100059.59;4449593;32;33608;-86
2022/06/02 06:46:24;;;;;;;11.85;7.93;;;;;;;20.21;72.90;100072.84;4447189;32;33233;-84
2022/06/02 06:48:55;;;;;;;11.73;8.35;;;;;;;19.52;76.83;100074.63;4449913;32;35730;-85
2022/06/02 06:51:44;;;;;;;10.57;7.80;;;;;;;19.39;77.26;100074.50;4450855;32;33025;-85
2022/06/02 06:54:54;;;;;;;9.90;7.50;;;;;;;19.18;78.30;100079.41;4448581;32;33067;-84
2022/06/02 06:57:42;;;;;;;9.63;7.60;;;;;;;19.53;76.90;100076.38;4447144;32;35782;-85
2022/06/02 07:00:24;;;;;;;9.48;7.05;;;;;;;19.71;76.26;100071.37;4447685;32;33634;-84
2022/06/02 07:03:19;;;;;;;7.70;5.80;;;;;;;19.52;73.91;100077.28;4445094;32;33755;-85
2022/06/02 07:05:54;;;;;;;;;;;;;;;19.84;72.12;100077.69;4441446;32;32886;-85
2022/06/02 07:08:28;;;;;;;7.90;5.55;;;;;;;20.33;70.61;100077.31;4448003;32;33434;-86
2022/06/02 07:11:05;;;;;;;9.10;6.05;;;;;;;20.27;71.33;100079.91;4451678;32;33749;-85
2022/06/02 07:13:39;;;;;;;8.40;6.18;;;;;;;19.89;73.28;100080.38;4452792;32;34604;-84
2022/06/02 07:16:17;;;;;;;7.97;5.55;;;;;;;19.89;72.46;100075.97;4449350;32;33192;-84
2022/06/02 07:19:09;;;;;;;10.95;6.35;;;;;;;19.95;72.79;100077.81;4449525;32;34033;-85
2022/06/02 07:22:45;;;;;;;9.15;5.90;;;;;;;20.10;71.47;100088.50;4452637;32;33965;-85
2022/06/02 07:25:27;;;;;;;7.50;5.00;;;;;;;19.81;70.91;100081.16;4377410;32;33483;-85
2022/06/02 07:28:05;;;;;;;7.78;5.00;;;;;;;20.10;69.45;100088.50;4374031;32;32935;-85
2022/06/02 07:30:39;;;;;;;6.78;4.95;;;;;;;21.48;66.88;100077.31;4435925;32;33984;-86
2022/06/02 07:33:28;;;;;;;7.47;5.00;;;;;;;21.91;65.23;100072.22;4452004;32;34591;-84
2022/06/02 07:36:30;;;;;;;12.55;5.53;;;;;;;22.31;62.59;100072.31;4451759;32;34272;-85
2022/06/02 07:39:24;;;;;;;7.47;5.10;;;;;;;21.85;64.04;100074.84;4435984;32;30420;-86
2022/06/02 07:42:17;;;;;;;9.02;4.68;;;;;;;21.40;66.49;100075.50;4451811;32;33867;-86
2022/06/02 07:44:51;;;;;;;6.12;4.10;;;;;;;21.73;65.69;100076.56;4446797;32;33755;-85
2022/06/02 07:47:43;;;;;;;6.60;3.62;;;;;;;22.48;61.14;100078.50;4451924;32;34475;-85
2022/06/02 07:50:28;;;;;;;5.00;2.90;;;;;;;21.57;60.72;100080.00;4448350;32;33413;-86
2022/06/02 07:52:59;;;;;;;;;;;;;;;23.11;54.86;100081.13;4453285;32;34031;-86
2022/06/02 07:55:46;;;;;;;5.03;2.50;;;;;;;23.72;53.90;100080.06;4449156;32;33864;-85
2022/06/02 07:58:50;;;;;;;4.82;2.65;;;;;;;23.63;52.18;100069.53;4450971;32;33804;-85
2022/06/02 08:01:17;;;;;;;6.15;2.53;;;;;;;22.37;53.92;100075.88;4447233;32;33210;-84
2022/06/02 08:03:45;;;;;;;4.78;2.70;;;;;;;22.46;57.00;100076.75;4452840;32;33983;-85
2022/06/02 08:06:31;;;;;;;4.30;2.78;;;;;;;22.42;56.53;100078.50;4452635;32;34486;-84
2022/06/02 08:09:12;;;;;;;4.75;2.50;;;;;;;23.26;53.79;100074.06;4450920;32;33946;-84
2022/06/02 08:11:43;;;;;;;;;;;;;;;23.44;54.12;100089.88;4452026;32;33705;-85
2022/06/02 08:14:31;;;;;;;5.30;2.70;;;;;;;23.42;54.11;100080.19;4443208;32;33993;-85
2022/06/02 08:17:00;;;;;;;5.15;2.90;;;;;;;23.98;52.15;100081.72;4448724;32;33468;-84
2022/06/02 08:19:47;;;;;;;6.12;2.83;;;;;;;23.01;53.54;100083.78;4452179;32;33840;-85
2022/06/02 08:22:24;;;;;;;4.75;2.37;;;;;;;23.98;51.55;100078.22;4447987;32;33277;-86
2022/06/02 08:24:57;;;;;;;5.12;3.00;;;;;;;24.42;50.26;100085.00;4451398;32;34018;-84
2022/06/02 08:27:31;;;;;;;4.30;2.65;;;;;;;24.20;50.37;100077.19;4448896;32;33906;-85
2022/06/02 08:30:04;;;;;;;6.80;3.25;;;;;;;24.18;51.04;100083.38;4452335;32;33616;-85
2022/06/02 08:32:50;;;;;;;6.70;3.30;;;;;;;24.27;51.48;100088.63;4454307;32;32072;-85
2022/06/02 08:35:37;;;;;;;5.07;3.22;;;;;;;24.60;48.76;100089.28;4451036;32;34660;-85
2022/06/02 08:38:26;;;;;;;5.93;3.25;;;;;;;23.12;53.41;100087.28;4444768;32;33956;-84
2022/06/02 08:41:28;;;;;;;6.65;3.30;;;;;;;23.54;53.52;100085.44;4450772;32;34014;-85
2022/06/02 08:44:09;;;;;;;5.70;3.45;;;;;;;23.05;55.63;100085.56;4451721;32;32958;-86
2022/06/02 08:46:55;;;;;;;5.90;3.03;;;;;;;24.36;51.25;100087.66;4448698;32;34501;-87
2022/06/02 08:49:51;;;;;;;5.53;3.40;;;;;;;24.71;48.53;100090.97;4447943;32;32868;-87
2022/06/02 08:52:34;;;;;;;8.00;2.83;;;;;;;24.69;48.82;100089.22;4448158;32;34241;-87
2022/06/02 08:55:23;;;;;;;5.72;3.10;;;;;;;24.88;48.32;100088.16;4452313;32;31906;-87
2022/06/02 08:58:18;;;;;;;6.18;3.20;;;;;;;25.11;48.99;100084.41;4451125;32;34035;-86
2022/06/02 09:01:10;;;;;;;5.22;2.80;;;;;;;25.17;48.97;100083.47;4450757;32;34387;-87
2022/06/02 09:04:12;;;;;;;4.25;2.62;;;;;;;25.55;46.19;100080.41;4448252;32;34561;-88
2022/06/02 09:06:49;;;;;;;3.67;2.42;;;;;;;25.80;45.50;100080.09;4450310;32;32973;-87
2022/06/02 09:10:02;;;;;;;5.90;2.78;;;;;;;26.09;47.39;100088.56;4450774;32;33884;-89
2022/06/02 09:12:43;;;;;;;4.95;2.60;;;;;;;25.65;45.92;100103.28;4448474;32;34671;-88
2022/06/02 09:15:44;;;;;;;5.53;2.10;;;;;;;25.98;45.19;100101.13;4450066;32;33973;-87
2022/06/02 09:18:19;;;;;;;4.20;2.67;;;;;;;25.48;47.21;100105.28;4451397;32;34043;-86
2022/06/02 09:20:53;;;;;;;3.35;2.00;;;;;;;25.90;45.47;100103.88;4433899;32;32759;-87
2022/06/02 09:23:31;;;;;;;4.22;2.10;;;;;;;25.97;45.54;100101.16;4445515;32;33905;-86
2022/06/02 09:26:14;;;;;;;3.72;2.17;;;;;;;25.05;49.33;100116.28;4435553;32;34018;-86
2022/06/02 09:28:41;;;;;;;3.35;2.37;;;;;;;25.77;48.92;100111.97;4450876;32;33472;-88
2022/06/02 09:31:43;;;;;;;4.72;2.40;;;;;;;25.37;47.24;100108.03;4450548;32;33646;-87
2022/06/02 09:34:42;;;;;;;4.10;2.12;;;;;;;25.66;47.97;100105.03;4446132;32;32447;-88
2022/06/02 09:37:15;;;;;;;4.20;2.12;;;;;;;26.22;45.67;100104.34;4446599;32;33373;-87
2022/06/02 09:40:00;;;;;;;4.75;2.08;;;;;;;26.32;46.04;100111.25;4450027;32;33708;-87
2022/06/02 09:43:00;;;;;;;4.22;2.00;;;;;;;25.68;47.20;100103.25;4450858;32;34510;-86
2022/06/02 09:46:02;;;;;;;2.90;1.80;;;;;;;26.14;44.26;100117.72;4447696;32;34612;-87
2022/06/02 09:49:06;;;;;;;4.15;2.05;;;;;;;26.48;43.57;100106.59;4447541;32;33537;-87
2022/06/02 09:51:39;;;;;;;3.70;2.12;;;;;;;26.41;43.99;100113.78;4459788;32;33446;-86
2022/06/02 09:54:19;;;;;;;3.08;1.75;;;;;;;26.68;43.92;100106.31;4450256;32;33018;-86
2022/06/02 09:57:55;;;;;;;3.80;1.95;;;;;;;25.51;45.87;100106.09;4459505;32;34539;-87
2022/06/02 10:00:20;;;;;;;4.18;2.28;;;;;;;25.30;46.50;100103.69;4450752;32;33831;-86
2022/06/02 10:03:36;;;;;;;3.28;2.00;;;;;;;24.88;47.69;100096.12;4447213;32;31809;-85
2022/06/02 10:06:07;;;;;;;;;;;;;;;25.90;46.31;100092.34;4429418;32;33784;-86
2022/06/02 10:08:53;;;;;;;5.22;2.33;;;;;;;25.73;45.50;100087.28;4445945;32;34089;-87
2022/06/02 10:11:38;;;;;;;3.47;1.87;;;;;;;25.97;48.03;100096.72;4448384;32;33857;-85
2022/06/02 10:14:18;;;;;;;4.37;2.12;;;;;;;26.69;45.02;100089.47;4445690;32;35627;-87
2022/06/02 10:17:07;;;;;;;4.28;2.22;;;;;;;26.43;44.95;100087.22;4448228;32;33977;-87
2022/06/02 10:19:58;;;;;;;4.72;1.98;;;;;;;26.96;44.24;100092.53;4438023;32;34591;-87
2022/06/02 10:22:57;;;;;;;4.25;2.20;;;;;;;26.70;45.25;100095.66;4444291;32;33882;-87
2022/06/02 10:25:24;;;;;;;7.72;2.40;;;;;;;26.92;44.60;100093.50;4444246;32;33204;-88
2022/06/02 10:28:16;;;;;;;4.93;2.50;;;;;;;26.75;43.78;100094.66;4447860;32;33943;-87
2022/06/02 10:31:05;;;;;;;6.53;2.25;;;;;;;26.36;45.16;100096.16;4442187;32;32784;-87
2022/06/02 10:33:42;;;;;;;4.12;2.10;;;;;;;26.88;43.78;100096.22;4448407;32;33538;-88
2022/06/02 10:36:16;;;;;;;3.67;2.15;;;;;;;26.61;43.73;100091.37;4445497;32;32099;-87
2022/06/02 10:39:02;;;;;;;3.30;2.08;;;;;;;26.66;43.99;100092.19;4443914;32;34358;-87
2022/06/02 10:41:36;;;;;;;4.30;2.40;;;;;;;27.01;43.49;100091.56;4447577;32;32628;-88
2022/06/02 10:44:11;;;;;;;6.90;2.37;;;;;;;26.71;43.62;100086.78;4448515;32;32707;-87
2022/06/02 10:47:01;;;;;;;5.53;2.80;;;;;;;26.55;44.20;100099.41;4443239;32;33060;-87
2022/06/02 10:49:55;;;;;;;5.00;2.50;;;;;;;26.74;44.17;100087.59;4446036;32;33147;-87
2022/06/02 10:52:48;;;;;;;3.90;2.55;;;;;;;26.76;44.66;100098.22;4433293;32;34878;-86
2022/06/02 10:55:37;;;;;;;5.25;3.00;;;;;;;26.26;46.06;100100.72;4440718;32;33346;-86
2022/06/02 10:58:31;;;;;;;3.37;2.28;;;;;;;27.09;43.44;100104.72;4439948;32;31695;-86
2022/06/02 11:01:07;;;;;;;5.05;2.72;;;;;;;26.81;44.57;100099.91;4448713;32;33916;-85
2022/06/02 11:03:54;;;;;;;5.05;2.75;;;;;;;26.14;46.76;100100.94;4452224;32;34215;-86
2022/06/02 11:06:52;;;;;;;3.60;2.35;;;;;;;26.92;43.66;100096.16;4452255;32;34556;-87
2022/06/02 11:09:59;;;;;;;5.18;2.60;;;;;;;27.16;44.10;100093.06;4453979;32;33968;-86
2022/06/02 11:12:42;;;;;;;3.87;2.42;;;;;;;26.76;46.05;100091.13;4443367;32;33840;-86
2022/06/02 11:15:47;;;;;;;3.40;2.30;;;;;;;25.94;46.37;100080.84;4439068;32;32594;-85
2022/06/02 11:18:54;;;;;;;3.40;2.50;;;;;;;26.88;44.15;100085.56;4449191;32;33612;-87
2022/06/02 11:22:01;;;;;;;4.45;2.50;;;;;;;26.02;46.31;100081.63;4450515;32;34156;-86
2022/06/02 11:24:37;;;;;;;4.12;2.45;;;;;;;27.14;43.77;100080.69;4449299;32;34646;-87
2022/06/02 11:27:24;;;;;;;4.55;2.50;;;;;;;27.28;43.82;100085.81;4450594;32;34696;-86
2022/06/02 11:30:18;;;;;;;3.87;2.35;;;;;;;26.18;45.62;100092.00;4451332;32;33845;-86
2022/06/02 11:32:52;;;;;;;4.12;2.25;;;;;;;27.08;42.79;100087.00;4448349;32;33123;-85
2022/06/02 11:35:44;;;;;;;3.57;2.23;;;;;;;26.93;42.89;100096.16;4451720;32;33471;-86
2022/06/02 11:38:36;;;;;;;4.28;2.20;;;;;;;26.97;42.96;100095.19;4459422;32;33533;-85
2022/06/02 11:41:24;;;;;;;3.85;2.00;;;;;;;26.97;41.45;100105.81;4461488;32;33521;-86
2022/06/02 11:44:09;;;;;;;2.80;1.70;;;;;;;27.11;41.05;100102.03;4468085;32;33270;-86
2022/06/02 11:46:38;;;;;;;3.75;1.75;;;;;;;27.36;40.30;100098.03;4454845;32;34717;-85
2022/06/02 11:49:29;;;;;;;2.55;1.40;;;;;;;26.91;40.35;100105.03;4452531;32;34638;-86
2022/06/02 11:52:26;;;;;;;3.20;2.10;;;;;;;26.79;40.47;100099.06;4464365;32;34277;-86
2022/06/02 11:55:13;;;;;;;2.85;1.60;;;;;;;27.00;40.77;100099.56;4425749;32;32767;-86
2022/06/02 11:58:06;;;;;;;4.65;1.52;;;;;;;27.10;40.27;100101.16;4469331;32;33755;-86
2022/06/02 12:00:44;;;;;;;2.95;1.40;;;;;;;26.59;39.90;100106.47;4453874;32;33115;-86
2022/06/02 12:03:31;;;;;;;5.15;1.55;;;;;;;27.01;38.03;100098.66;4453256;32;34548;-86
2022/06/02 12:06:01;;;;;;;2.10;1.30;;;;;;;26.83;39.67;100103.41;4456905;32;33326;-86
2022/06/02 12:08:57;;;;;;;2.67;1.50;;;;;;;26.96;38.81;100100.53;4463848;32;33801;-86
2022/06/02 12:12:02;;;;;;;1.85;1.20;;;;;;;27.63;37.49;100091.28;4435608;32;33065;-86
2022/06/02 12:14:59;;;;;;;1.98;1.12;;;;;;;27.82;38.44;100096.22;4454245;32;34766;-86
2022/06/02 12:17:45;;;;;;;3.67;1.40;;;;;;;28.07;37.83;100095.69;4453938;32;34404;-86
2022/06/02 12:20:35;;;;;;;2.65;1.27;;;;;;;28.30;36.75;100104.06;4443019;32;35311;-86
2022/06/02 12:23:15;;;;;;;1.30;0.82;;;;;;;28.26;36.49;100097.06;4453731;32;34833;-86
2022/06/02 12:26:04;;;;;;;1.60;1.10;;;;;;;28.07;35.86;100095.69;4454752;32;33179;-87
2022/06/02 12:28:49;;;;;;;1.65;1.00;;;;;;;28.30;35.56;100098.72;4448429;32;33277;-86
2022/06/02 12:31:30;;;;;;;2.12;0.80;;;;;;;28.02;36.99;100102.00;4454386;32;34703;-87
2022/06/02 12:34:27;;;;;;;1.40;0.90;;;;;;;27.98;35.34;100097.66;4468934;32;34579;-87
2022/06/02 12:37:16;;;;;;;1.23;0.70;;;;;;;28.47;35.30;100116.97;4448280;32;33892;-86
2022/06/02 12:40:06;;;;;;;1.92;0.75;;;;;;;28.45;34.54;100108.13;4439855;32;84373;-85
2022/06/02 12:42:59;;;;;;;3.75;0.90;;;;;;;28.78;35.37;100105.59;4452796;32;34520;-87
2022/06/02 12:45:32;;;;;;;1.95;0.57;;;;;;;28.46;35.14;100109.91;4464663;32;34213;-87
2022/06/02 12:48:19;;;;;;;2.67;0.68;;;;;;;27.62;35.25;100108.16;4440489;32;33449;-86
2022/06/02 12:51:34;;;;;;;2.50;0.80;;;;;;;27.70;34.96;100113.34;4466991;32;33176;-85
2022/06/02 12:54:36;;;;;;;2.17;0.90;;;;;;;28.32;33.33;100112.88;4386741;32;34115;-88
2022/06/02 12:57:08;;;;;;;2.20;0.85;;;;;;;28.26;34.59;100107.72;4422049;32;34473;-87
2022/06/02 13:00:05;;;;;;;3.05;0.90;;;;;;;28.44;33.85;100111.72;4451119;32;33516;-86
2022/06/02 13:02:45;;;;;;;1.42;0.98;;;;;;;28.33;32.47;100125.28;4435954;32;33263;-86